Time;durP1;ratioP1;P1;durP2;ratioP2;P2;SDS_P1;SDS_P2;PMS_P1;PMS_P2;Temp;Humidity;BMP_temperature;BMP_pressure;BME280_temperature;BME280_humidity;BME280_pressure;Samples;Min_cycle;Max_cycle;Signal;HPM_P1;HPM_P2
2021/04/10 00:00:54;;;;;;;;;;;;;;;-1.14;77.45;93965.59;5012377;28;20381;-89
2021/04/10 00:03:21;;;;;;;12.63;5.55;;;;;;;-1.27;77.74;93955.66;5011336;28;19925;-87
2021/04/10 00:05:48;;;;;;;13.68;6.45;;;;;;;-1.27;78.57;93953.13;5011429;28;20463;-88
2021/04/10 00:08:15;;;;;;;17.05;5.15;;;;;;;-1.32;78.40;93930.00;5011661;28;20042;-89
2021/04/10 00:10:41;;;;;;;12.60;6.80;;;;;;;-1.48;78.19;93915.28;5011526;28;20054;-88
2021/04/10 00:13:07;;;;;;;;;;;;;;;-1.22;78.09;93955.28;5012012;28;20050;-89
2021/04/10 00:15:34;;;;;;;9.90;3.78;;;;;;;-1.38;79.33;93941.34;5011362;28;19928;-89
2021/04/10 00:18:00;;;;;;;17.67;5.22;;;;;;;-1.33;78.98;93956.13;5011297;28;20057;-89
2021/04/10 00:20:27;;;;;;;;;;;;;;;-1.43;78.28;93956.00;5011721;28;20402;-90
2021/04/10 00:22:53;;;;;;;9.48;3.33;;;;;;;-1.48;78.47;93951.34;5011448;28;19921;-88
2021/04/10 00:25:21;;;;;;;6.50;4.07;;;;;;;-1.52;78.68;93939.09;5011466;28;20045;-89
2021/04/10 00:27:48;;;;;;;9.25;4.32;;;;;;;-1.64;78.45;93926.50;5011530;28;20054;-89
2021/04/10 00:30:16;;;;;;;6.30;4.15;;;;;;;-1.48;78.15;93940.47;5011331;28;20068;-88
2021/04/10 00:32:43;;;;;;;8.70;4.50;;;;;;;-1.50;77.94;93954.88;5011661;28;20501;-88
2021/04/10 00:35:11;;;;;;;7.88;4.28;;;;;;;-1.51;78.15;93946.53;5011618;28;20089;-90
2021/04/10 00:37:39;;;;;;;9.63;4.80;;;;;;;-1.46;78.34;93953.75;5011722;28;20061;-89
2021/04/10 00:40:06;;;;;;;9.40;5.03;;;;;;;-1.40;79.00;93950.75;5011884;28;20046;-88
2021/04/10 00:42:34;;;;;;;12.70;5.85;;;;;;;-1.42;79.25;93946.75;5011594;28;20057;-88
2021/04/10 00:45:00;;;;;;;9.07;3.90;;;;;;;-1.46;78.24;93947.88;5011451;28;20050;-88
2021/04/10 00:47:26;;;;;;;9.23;3.80;;;;;;;-1.55;78.53;93936.78;5011336;28;20057;-88
2021/04/10 00:49:53;;;;;;;12.57;3.88;;;;;;;-1.75;78.53;93912.19;5011513;28;20120;-89
2021/04/10 00:52:19;;;;;;;7.30;3.95;;;;;;;-1.51;77.93;93946.53;5011319;28;20521;-89
2021/04/10 00:54:50;;;;;;;4.63;3.40;;;;;;;-1.53;78.13;93950.88;5011310;28;20050;-90
2021/04/10 00:57:16;;;;;;;5.35;2.42;;;;;;;-1.77;78.87;93909.00;5011021;28;20054;-88
2021/04/10 00:59:43;;;;;;;8.40;2.97;;;;;;;-1.57;78.85;93933.59;5010911;28;20057;-89
2021/04/10 01:02:09;;;;;;;4.03;2.10;;;;;;;-1.59;78.37;93941.28;5011171;28;20050;-89
2021/04/10 01:04:36;;;;;;;3.00;1.88;;;;;;;-1.75;78.15;93908.91;5010828;28;20054;-90
2021/04/10 01:07:02;;;;;;;;;;;;;;;-1.65;78.68;93934.19;5011246;28;20505;-89
2021/04/10 01:09:29;;;;;;;6.68;3.78;;;;;;;-1.73;79.05;93937.28;5013271;28;19921;-90
2021/04/10 01:12:12;;;;;;;4.95;2.83;;;;;;;-1.79;78.96;93940.28;5014349;28;20100;-90
2021/04/10 01:14:46;;;;;;;5.47;3.00;;;;;;;-1.80;78.94;93941.97;5014195;28;20505;-89
2021/04/10 01:17:18;;;;;;;3.33;1.83;;;;;;;-1.95;79.55;93920.50;5014391;28;20050;-88
2021/04/10 01:20:02;;;;;;;5.32;2.40;;;;;;;-2.02;79.17;93910.88;5014643;28;20064;-89
2021/04/10 01:22:53;;;;;;;5.93;2.53;;;;;;;-1.77;79.05;93949.31;5014017;28;20053;-89
2021/04/10 01:25:24;;;;;;;7.82;2.28;;;;;;;-1.76;79.20;93942.56;5013890;28;20058;-89
2021/04/10 01:27:56;;;;;;;3.47;2.10;;;;;;;-1.83;78.83;93936.38;5014018;28;20490;-89
2021/04/10 01:30:25;;;;;;;7.47;3.25;;;;;;;-1.83;78.36;93934.66;5014118;28;20108;-89
2021/04/10 01:32:58;;;;;;;6.07;3.13;;;;;;;-1.83;77.88;93929.63;5013862;28;20046;-88
2021/04/10 01:35:30;;;;;;;5.60;3.47;;;;;;;-1.84;78.85;93945.66;5014221;28;20052;-89
2021/04/10 01:38:00;;;;;;;12.85;3.35;;;;;;;-1.95;79.83;93948.97;5013897;28;20046;-88
2021/04/10 01:40:30;;;;;;;6.90;3.35;;;;;;;-1.95;80.21;93938.91;5014077;28;20445;-88
2021/04/10 01:42:57;;;;;;;4.25;2.25;;;;;;;-1.97;80.18;93942.44;5014138;28;20061;-89
2021/04/10 01:45:26;;;;;;;8.18;3.08;;;;;;;-1.97;80.30;93944.97;5013817;28;20441;-89
2021/04/10 01:47:56;;;;;;;10.95;3.80;;;;;;;-2.15;79.90;93930.31;5014212;28;20050;-89
2021/04/10 01:50:24;;;;;;;8.10;2.92;;;;;;;-2.10;80.12;93929.97;5013993;28;20486;-88
2021/04/10 01:52:52;;;;;;;6.53;3.13;;;;;;;-2.05;80.89;93943.81;5014260;28;20053;-88
2021/04/10 01:55:18;;;;;;;3.88;2.70;;;;;;;-2.16;80.02;93939.56;5014207;28;20042;-88
2021/04/10 01:57:45;;;;;;;8.05;3.80;;;;;;;-2.40;80.59;93919.56;5014043;28;20061;-88
2021/04/10 02:00:12;;;;;;;;;;;;;;;-2.29;80.87;93939.69;5014620;28;20104;-90
2021/04/10 02:02:41;;;;;;;4.80;2.47;;;;;;;-2.34;81.57;93938.41;5014239;28;19921;-89
2021/04/10 02:05:13;;;;;;;4.65;2.42;;;;;;;-2.42;81.03;93942.31;5014287;28;20049;-89
2021/04/10 02:07:42;;;;;;;6.30;2.55;;;;;;;-2.34;81.47;93940.94;5014029;28;20050;-88
2021/04/10 02:10:10;;;;;;;9.05;3.63;;;;;;;-2.42;81.70;93929.72;5013816;28;20422;-89
2021/04/10 02:12:38;;;;;;;4.78;2.85;;;;;;;-2.26;81.72;93937.84;5014041;28;20120;-89
2021/04/10 02:15:06;;;;;;;7.57;2.60;;;;;;;-2.32;81.58;93924.81;5014016;28;20054;-89
2021/04/10 02:17:32;;;;;;;5.25;2.60;;;;;;;-2.31;82.02;93936.47;5013985;28;20042;-89
2021/04/10 02:19:59;;;;;;;2.80;1.92;;;;;;;-2.42;81.46;93934.75;5012985;28;20046;-89
2021/04/10 02:22:32;;;;;;;3.63;3.05;;;;;;;-2.41;81.14;93940.56;5013529;28;20050;-89
2021/04/10 02:24:59;;;;;;;7.47;3.10;;;;;;;-2.56;80.69;93925.69;5010237;28;20041;-88
2021/04/10 02:27:25;;;;;;;;;;;;;;;-2.42;80.88;93938.97;5014521;28;20049;-89
2021/04/10 02:29:51;;;;;;;3.92;1.85;;;;;;;-2.51;81.37;93937.16;5013162;28;20389;-88
2021/04/10 02:32:21;;;;;;;;;;;;;;;-2.51;81.56;93937.94;5013512;28;20050;-91
2021/04/10 02:34:53;;;;;;;9.07;2.08;;;;;;;-2.58;81.27;93945.13;5013431;28;20341;-88
2021/04/10 02:37:21;;;;;;;6.97;2.67;;;;;;;-2.60;80.66;93931.88;5013363;28;20046;-88
2021/04/10 02:39:49;;;;;;;5.38;1.80;;;;;;;-2.56;80.75;93945.81;5013304;28;20052;-89
2021/04/10 02:42:18;;;;;;;4.53;2.28;;;;;;;-2.64;80.82;93922.94;5013760;28;20077;-90
2021/04/10 02:44:47;;;;;;;6.30;2.60;;;;;;;-2.63;80.40;93934.63;5013256;28;20395;-89
2021/04/10 02:47:16;;;;;;;1.85;1.75;;;;;;;-2.61;80.05;93929.44;5013676;28;20056;-89
2021/04/10 02:49:47;;;;;;;4.43;1.80;;;;;;;-2.58;79.30;93935.06;5013479;28;20061;-89
2021/04/10 02:52:14;;;;;;;3.70;1.73;;;;;;;-2.70;80.09;93939.28;5013318;28;20494;-88
2021/04/10 02:54:49;;;;;;;6.38;2.40;;;;;;;-2.71;80.70;93926.81;5013708;28;20041;-89
2021/04/10 02:57:18;;;;;;;5.32;3.35;;;;;;;-2.82;82.34;93920.84;5013615;28;20053;-89
2021/04/10 02:59:46;;;;;;;4.57;3.05;;;;;;;-2.75;82.74;93931.25;5013757;28;20054;-89
2021/04/10 03:02:14;;;;;;;6.63;3.67;;;;;;;-2.80;84.16;93940.03;5013291;28;20491;-89
2021/04/10 03:04:42;;;;;;;6.25;4.43;;;;;;;-3.01;85.94;93928.88;5013765;28;20526;-89
2021/04/10 03:07:09;;;;;;;4.97;2.72;;;;;;;-3.05;86.30;93934.25;5013715;28;20108;-90
2021/04/10 03:09:38;;;;;;;7.57;3.33;;;;;;;-3.04;86.80;93935.84;5014228;28;20442;-89
2021/04/10 03:12:07;;;;;;;5.53;3.60;;;;;;;-2.98;86.63;93936.22;5014225;28;20502;-90
2021/04/10 03:14:35;;;;;;;12.48;4.90;;;;;;;-2.96;85.14;93941.94;5013260;28;20045;-90
2021/04/10 03:17:03;;;;;;;4.80;3.30;;;;;;;-3.03;85.90;93940.78;5013503;28;20061;-90
2021/04/10 03:19:30;;;;;;;6.65;4.32;;;;;;;-3.22;86.25;93929.50;5013397;28;20446;-89
2021/04/10 03:21:57;;;;;;;9.43;3.72;;;;;;;-3.20;87.05;93943.66;5014082;28;20042;-89
2021/04/10 03:24:23;;;;;;;11.00;5.75;;;;;;;-3.16;87.61;93942.56;5013003;28;20549;-89
2021/04/10 03:26:50;;;;;;;10.15;5.72;;;;;;;-3.13;87.09;93933.09;5013469;28;20046;-89
2021/04/10 03:29:18;;;;;;;12.50;6.03;;;;;;;-3.03;87.50;93950.00;5014403;28;20116;-89
2021/04/10 03:31:45;;;;;;;12.98;4.53;;;;;;;-3.16;86.95;93933.28;5014104;28;20486;-89
2021/04/10 03:34:12;;;;;;;5.07;3.22;;;;;;;-3.06;85.44;93950.25;5012880;28;20418;-90
2021/04/10 03:36:39;;;;;;;13.38;4.13;;;;;;;-3.22;85.40;93927.00;5012984;28;20053;-89
2021/04/10 03:39:05;;;;;;;22.88;7.00;;;;;;;-3.09;85.62;93941.22;5013099;28;20045;-89
2021/04/10 03:41:32;;;;;;;11.88;5.32;;;;;;;-3.07;85.95;93951.94;5013179;28;20052;-89
2021/04/10 03:43:58;;;;;;;13.05;4.95;;;;;;;-3.25;85.05;93929.72;5012240;28;20054;-91
2021/04/10 03:46:25;;;;;;;;;;;;;;;-3.13;85.37;93953.19;5012541;28;20495;-90
2021/04/10 03:48:52;;;;;;;6.47;4.13;;;;;;;-3.25;85.33;93954.03;5012443;28;19921;-90
2021/04/10 03:51:18;;;;;;;7.32;3.50;;;;;;;-3.40;85.44;93939.13;5012264;28;20513;-90
2021/04/10 03:53:45;;;;;;;5.53;3.13;;;;;;;-3.36;85.67;93950.56;5012146;28;20451;-91
2021/04/10 03:56:11;;;;;;;3.03;2.00;;;;;;;-3.30;85.44;93954.34;5012505;28;20393;-89
2021/04/10 03:58:37;;;;;;;4.38;2.33;;;;;;;-3.32;84.75;93951.16;5012759;28;20402;-90
2021/04/10 04:01:03;;;;;;;;;;;;;;;-3.30;84.81;93956.88;5013004;28;20050;-89
2021/04/10 04:03:31;;;;;;;12.48;6.40;;;;;;;-3.36;85.06;93958.09;5012129;28;20285;-90
2021/04/10 04:05:57;;;;;;;18.83;7.70;;;;;;;-3.37;86.05;93956.47;5012198;28;20049;-90
2021/04/10 04:08:23;;;;;;;;;;;;;;;-3.30;87.09;93961.06;5012088;28;20135;-90
2021/04/10 04:10:49;;;;;;;7.20;5.95;;;;;;;-3.38;87.31;93956.59;5011316;28;19925;-91
2021/04/10 04:13:15;;;;;;;;;;;;;;;-3.28;88.25;93962.56;5012606;28;20058;-90
2021/04/10 04:15:41;;;;;;;5.40;3.95;;;;;;;-3.24;87.96;93963.19;5011810;28;19928;-91
2021/04/10 04:18:08;;;;;;;;;;;;;;;-3.22;87.97;93956.34;5011902;28;20046;-91
2021/04/10 04:20:35;;;;;;;10.85;2.95;;;;;;;-3.22;88.76;93947.09;5011483;28;20305;-91
2021/04/10 04:23:01;;;;;;;13.88;6.22;;;;;;;-3.13;87.53;93949.88;5011622;28;20054;-90
2021/04/10 04:25:27;;;;;;;;;;;;;;;-3.06;87.03;93951.03;5009462;28;20058;-91
2021/04/10 04:27:53;;;;;;;14.38;6.15;;;;;;;-3.10;86.99;93947.94;5010912;28;19929;-91
2021/04/10 04:30:20;;;;;;;;;;;;;;;-3.07;87.31;93956.97;5011088;28;20061;-90
2021/04/10 04:32:46;;;;;;;10.65;6.03;;;;;;;-3.15;87.75;93929.06;5010942;28;19921;-91
2021/04/10 04:35:13;;;;;;;15.75;11.82;;;;;;;-2.99;88.01;93944.69;5010983;28;20045;-92
2021/04/10 04:37:41;;;;;;;17.13;9.27;;;;;;;-2.84;87.25;93954.53;5011031;28;20042;-91
2021/04/10 04:40:08;;;;;;;44.42;17.42;;;;;;;-2.86;87.10;93942.06;5010023;28;20064;-91
2021/04/10 04:42:35;;;;;;;25.63;10.75;;;;;;;-2.77;87.00;93944.84;5020302;28;20953;-90
2021/04/10 04:45:01;;;;;;;18.80;11.38;;;;;;;-2.60;86.92;93951.19;5019488;28;20046;-90
2021/04/10 04:47:28;;;;;;;39.42;14.73;;;;;;;-2.52;86.58;93951.44;5014755;28;20053;-90
2021/04/10 04:49:54;;;;;;;19.35;9.90;;;;;;;-2.46;84.80;93947.69;5016276;28;20391;-91
2021/04/10 04:52:20;;;;;;;;;;;;;;;-2.30;84.84;93954.91;5014991;28;20054;-91
2021/04/10 04:54:47;;;;;;;17.77;8.52;;;;;;;-2.36;83.81;93940.25;5014496;28;20040;-93
2021/04/10 04:57:13;;;;;;;16.38;7.88;;;;;;;-2.13;84.12;93953.66;5014150;28;20046;-92
2021/04/10 04:59:39;;;;;;;;;;;;;;;-1.91;82.91;93955.38;5015035;28;20046;-92
2021/04/10 05:02:06;;;;;;;12.07;6.75;;;;;;;-1.72;81.69;93954.00;5014238;28;19921;-94
2021/04/10 05:04:32;;;;;;;;;;;;;;;-1.62;80.82;93959.94;5014806;28;20050;-92
2021/04/10 05:06:58;;;;;;;10.77;3.70;;;;;;;-1.39;78.78;93954.06;5014238;28;19972;-91
2021/04/10 05:09:24;;;;;;;4.35;3.38;;;;;;;-1.37;78.83;93950.53;5014106;28;20430;-90
2021/04/10 05:11:52;;;;;;;7.07;4.32;;;;;;;-1.13;76.58;93943.69;5014087;28;20569;-90
2021/04/10 05:14:18;;;;;;;10.25;6.13;;;;;;;-0.97;75.62;93961.72;5014015;28;20104;-92
2021/04/10 05:16:44;;;;;;;;;;;;;;;-0.98;74.90;93966.88;5014281;28;20494;-92
2021/04/10 05:19:10;;;;;;;11.00;4.93;;;;;;;-1.06;77.87;93976.78;5023828;28;19928;-92
2021/04/10 05:21:36;;;;;;;13.52;4.90;;;;;;;-0.98;76.28;93972.75;5033652;28;20489;-92
2021/04/10 05:24:03;;;;;;;10.82;5.38;;;;;;;-1.13;77.44;93966.38;5033361;28;20103;-92
2021/04/10 05:26:31;;;;;;;8.00;4.57;;;;;;;-0.95;77.32;93969.19;5033755;28;20089;-92
2021/04/10 05:28:58;;;;;;;14.57;7.93;;;;;;;-0.79;77.45;93968.78;5033572;28;20468;-92
2021/04/10 05:31:25;;;;;;;20.88;5.72;;;;;;;-0.72;77.33;93967.38;5033436;28;20061;-90
2021/04/10 05:33:52;;;;;;;10.70;5.05;;;;;;;-1.00;78.08;93973.78;5033403;28;20096;-91
2021/04/10 05:36:18;;;;;;;26.65;7.45;;;;;;;-0.63;78.84;93973.41;5033555;28;20053;-91
2021/04/10 05:38:44;;;;;;;;;;;;;;;-0.32;77.81;93978.53;5033672;28;20046;-90
2021/04/10 05:41:10;;;;;;;17.30;5.07;;;;;;;-0.23;78.58;93971.16;5033245;28;19939;-88
2021/04/10 05:43:36;;;;;;;;;;;;;;;-0.14;77.38;93973.72;5033938;28;20421;-87
2021/04/10 05:46:04;;;;;;;13.45;4.50;;;;;;;-0.14;76.73;93968.66;5033365;28;20300;-87
2021/04/10 05:48:30;;;;;;;10.25;6.47;;;;;;;-0.17;77.51;93973.16;5022427;28;20054;-86
2021/04/10 05:50:57;;;;;;;10.88;6.47;;;;;;;0.04;77.35;93962.25;5013516;28;20493;-86
2021/04/10 05:53:23;;;;;;;14.02;7.70;;;;;;;-0.03;76.96;93964.47;5013232;28;20064;-86
2021/04/10 05:55:50;;;;;;;12.43;6.50;;;;;;;0.32;75.75;93950.63;5012417;28;20050;-88
2021/04/10 05:58:16;;;;;;;;;;;;;;;0.64;74.17;93952.19;5013728;28;20108;-88
2021/04/10 06:00:42;;;;;;;15.30;6.28;;;;;;;0.89;73.82;93955.13;5013151;28;19922;-90
2021/04/10 06:03:10;;;;;;;17.48;7.75;;;;;;;1.11;72.04;93943.16;5013170;28;20054;-88
2021/04/10 06:05:36;;;;;;;30.83;8.07;;;;;;;1.20;71.40;93949.16;5012839;28;20457;-89
2021/04/10 06:08:02;;;;;;;11.60;5.90;;;;;;;1.57;68.16;93945.94;5013512;28;20045;-89
2021/04/10 06:10:29;;;;;;;14.88;6.55;;;;;;;1.56;69.11;93949.41;5013214;28;20046;-89
2021/04/10 06:12:55;;;;;;;12.13;7.15;;;;;;;1.85;69.10;93940.94;5012987;28;20053;-89
2021/04/10 06:15:21;;;;;;;;;;;;;;;1.96;66.39;93956.94;5013541;28;20123;-88
2021/04/10 06:17:48;;;;;;;13.50;7.22;;;;;;;2.08;68.35;93955.03;5012941;28;19945;-90
2021/04/10 06:20:19;;;;;;;19.05;8.75;;;;;;;2.29;67.50;93952.28;5031282;28;20054;-89
2021/04/10 06:22:45;;;;;;;19.20;8.02;;;;;;;2.47;67.99;93949.81;5032819;28;20072;-89
2021/04/10 06:25:11;;;;;;;;;;;;;;;2.69;67.20;93954.63;5032924;28;20421;-88
2021/04/10 06:27:38;;;;;;;24.60;7.78;;;;;;;2.67;68.02;93942.88;5032500;28;20296;-88
2021/04/10 06:30:07;;;;;;;18.02;10.10;;;;;;;3.00;64.69;93946.69;5011991;28;20108;-86
2021/04/10 06:32:33;;;;;;;20.75;8.90;;;;;;;3.28;62.82;93954.22;5012502;28;20057;-88
2021/04/10 06:34:59;;;;;;;18.27;9.68;;;;;;;3.42;62.61;93956.22;5012442;28;20042;-86
2021/04/10 06:37:26;;;;;;;;;;;;;;;3.65;61.80;93957.53;5013186;28;20383;-87
2021/04/10 06:39:53;;;;;;;26.70;8.73;;;;;;;3.85;61.45;93969.06;5012445;28;20381;-88
2021/04/10 06:42:19;;;;;;;;;;;;;;;4.26;60.54;93958.34;5012925;28;20076;-87
2021/04/10 06:44:45;;;;;;;13.45;6.60;;;;;;;4.43;57.97;93950.78;5012554;28;19948;-87
2021/04/10 06:47:12;;;;;;;;;;;;;;;4.80;56.03;93946.28;5012737;28;20049;-86
2021/04/10 06:49:39;;;;;;;11.43;6.22;;;;;;;5.27;55.91;93939.81;5012138;28;19925;-87
2021/04/10 06:52:07;;;;;;;12.95;4.03;;;;;;;5.79;51.24;93942.97;5012487;28;20101;-86
2021/04/10 06:54:37;;;;;;;15.55;6.07;;;;;;;6.30;51.00;93938.59;5012292;28;20061;-88
2021/04/10 06:57:13;;;;;;;12.35;6.63;;;;;;;6.64;48.09;93928.09;5012364;28;20045;-88
2021/04/10 06:59:49;;;;;;;16.13;7.32;;;;;;;6.65;49.44;93934.00;5012137;28;20061;-86
2021/04/10 07:02:15;;;;;;;;;;;;;;;6.98;49.73;93933.81;5012690;28;20457;-87
2021/04/10 07:04:42;;;;;;;14.95;6.20;;;;;;;7.37;47.86;93937.25;5012172;28;20020;-86
2021/04/10 07:07:09;;;;;;;;;;;;;;;7.77;47.32;93942.16;5012336;28;20053;-86
2021/04/10 07:09:37;;;;;;;14.85;6.00;;;;;;;8.15;45.21;93937.00;5012033;28;19932;-85
2021/04/10 07:12:05;;;;;;;7.65;3.85;;;;;;;8.50;43.15;93935.66;5011815;28;20046;-86
2021/04/10 07:14:32;;;;;;;9.60;3.45;;;;;;;8.81;38.80;93930.34;5011614;28;20049;-87
2021/04/10 07:16:58;;;;;;;15.18;8.13;;;;;;;9.20;38.32;93925.00;5012010;28;20054;-88
2021/04/10 07:19:25;;;;;;;;;;;;;;;9.54;36.82;93931.22;5024098;28;20050;-86
2021/04/10 07:22:03;;;;;;;16.30;9.13;;;;;;;9.91;37.17;93923.41;5031900;28;19920;-86
2021/04/10 07:24:37;;;;;;;56.60;19.17;;;;;;;10.27;36.13;93935.28;5031384;28;20108;-87
2021/04/10 07:27:04;;;;;;;10.52;3.78;;;;;;;10.46;35.22;93940.72;5031213;28;20045;-87
2021/04/10 07:29:33;;;;;;;8.02;4.10;;;;;;;10.64;33.93;93929.94;5031466;28;20168;-87
2021/04/10 07:32:00;;;;;;;14.82;4.80;;;;;;;10.87;34.77;93933.97;5031033;28;20096;-86
2021/04/10 07:34:28;;;;;;;3.65;1.70;;;;;;;11.05;32.80;93935.19;5031374;28;20088;-87
2021/04/10 07:36:59;;;;;;;17.75;8.13;;;;;;;11.29;34.47;93921.00;5031265;28;20049;-87
2021/04/10 07:39:26;;;;;;;11.57;2.95;;;;;;;11.30;32.72;93927.72;5030939;28;20136;-86
2021/04/10 07:42:01;;;;;;;6.10;2.85;;;;;;;11.19;32.43;93918.81;5031454;28;20052;-87
2021/04/10 07:44:39;;;;;;;2.55;1.20;;;;;;;11.44;32.50;93923.38;5012919;28;20057;-87
2021/04/10 07:47:07;;;;;;;5.20;2.08;;;;;;;11.54;32.15;93928.16;5011420;28;20049;-87
2021/04/10 07:49:33;;;;;;;4.97;3.08;;;;;;;11.81;33.49;93930.72;5010855;28;20045;-88
2021/04/10 07:52:01;;;;;;;;;;;;;;;11.90;33.82;93926.16;5011526;28;20054;-86
2021/04/10 07:54:29;;;;;;;4.85;1.50;;;;;;;11.84;32.27;93927.75;5011246;28;20365;-87
2021/04/10 07:56:58;;;;;;;3.38;1.15;;;;;;;12.02;32.41;93927.13;5011326;28;20577;-88
2021/04/10 07:59:26;;;;;;;5.40;2.45;;;;;;;12.15;32.43;93913.47;5011257;28;20050;-87
2021/04/10 08:01:53;;;;;;;2.85;1.25;;;;;;;12.13;30.20;93924.97;5011169;28;20073;-85
2021/04/10 08:04:21;;;;;;;1.83;1.20;;;;;;;12.22;30.17;93923.75;5010802;28;20054;-88
2021/04/10 08:06:59;;;;;;;3.17;1.92;;;;;;;12.46;31.95;93913.78;5011430;28;20552;-85
2021/04/10 08:09:34;;;;;;;3.65;1.50;;;;;;;12.53;31.34;93916.31;5011013;28;20038;-87
2021/04/10 08:12:01;;;;;;;5.45;2.55;;;;;;;12.72;32.08;93916.47;5010990;28;20054;-86
2021/04/10 08:14:40;;;;;;;3.92;2.38;;;;;;;12.89;31.32;93896.94;5011126;28;20050;-87
2021/04/10 08:17:07;;;;;;;2.00;1.20;;;;;;;12.47;31.48;93881.06;5010760;28;20065;-85
2021/04/10 08:19:34;;;;;;;2.85;1.70;;;;;;;12.48;32.41;93903.25;5026876;28;20403;-87
2021/04/10 08:22:01;;;;;;;2.10;1.02;;;;;;;12.47;32.22;93906.84;5034729;28;20425;-87
2021/04/10 08:24:33;;;;;;;4.85;1.15;;;;;;;12.54;30.65;93912.75;5034635;28;20057;-87
2021/04/10 08:27:02;;;;;;;2.33;1.38;;;;;;;12.55;31.10;93902.25;5034673;28;20049;-87
2021/04/10 08:29:29;;;;;;;2.15;1.25;;;;;;;12.86;32.43;93892.19;5035006;28;20049;-87
2021/04/10 08:31:57;;;;;;;3.15;1.23;;;;;;;12.95;30.77;93897.91;5034477;28;20057;-88
2021/04/10 08:34:23;;;;;;;4.13;2.17;;;;;;;13.16;29.53;93893.41;5020325;28;20072;-88
2021/04/10 08:36:50;;;;;;;;;;;;;;;13.37;29.20;93897.44;5015203;28;20054;-88
2021/04/10 08:39:20;;;;;;;3.03;1.25;;;;;;;13.46;30.44;93896.22;5014917;28;19921;-89
2021/04/10 08:41:47;;;;;;;1.90;0.80;;;;;;;13.12;28.56;93900.78;5012081;28;20050;-86
2021/04/10 08:44:16;;;;;;;1.85;0.90;;;;;;;13.17;27.45;93889.84;5013978;28;20061;-86
2021/04/10 08:46:45;;;;;;;3.55;1.63;;;;;;;13.36;30.63;93891.50;5014699;28;20045;-84
2021/04/10 08:49:15;;;;;;;1.85;0.90;;;;;;;13.40;27.27;93884.13;5014404;28;20046;-84
2021/04/10 08:51:43;;;;;;;2.20;1.00;;;;;;;13.50;28.82;93888.84;5014228;28;20490;-84
2021/04/10 08:54:11;;;;;;;2.95;1.27;;;;;;;13.71;28.78;93881.72;5014417;28;20050;-85
2021/04/10 08:56:39;;;;;;;2.80;0.93;;;;;;;13.83;28.62;93885.19;5014308;28;20104;-86
2021/04/10 08:59:10;;;;;;;3.20;1.48;;;;;;;13.78;29.06;93887.63;5014322;28;20045;-86
2021/04/10 09:01:39;;;;;;;3.25;1.55;;;;;;;13.80;29.45;93869.34;5014359;28;20042;-88
2021/04/10 09:04:06;;;;;;;1.60;0.95;;;;;;;14.14;26.88;93885.28;5014061;28;20049;-87
2021/04/10 09:06:50;;;;;;;1.77;0.75;;;;;;;14.10;27.78;93863.47;5014292;28;21304;-85
2021/04/10 09:09:30;;;;;;;5.80;2.42;;;;;;;14.38;28.86;93875.09;5014057;28;20101;-85
2021/04/10 09:12:21;;;;;;;3.42;1.27;;;;;;;14.48;25.22;93862.44;4998074;28;20049;-86
2021/04/10 09:14:49;;;;;;;2.80;1.52;;;;;;;14.53;28.35;93867.75;5005128;28;20053;-86
2021/04/10 09:17:16;;;;;;;3.90;1.63;;;;;;;14.65;27.83;93862.66;5013890;28;20042;-87
2021/04/10 09:19:42;;;;;;;6.38;3.33;;;;;;;14.39;28.11;93866.31;5028643;28;20429;-84
2021/04/10 09:22:16;;;;;;;5.45;1.77;;;;;;;14.52;26.66;93858.44;5033933;28;20053;-86
2021/04/10 09:24:45;;;;;;;1.67;1.00;;;;;;;14.36;27.22;93861.59;5033655;28;20054;-87
2021/04/10 09:27:18;;;;;;;1.45;0.63;;;;;;;14.27;25.65;93861.13;5033674;28;20413;-87
2021/04/10 09:29:58;;;;;;;1.77;0.60;;;;;;;14.52;27.19;93853.25;5033551;28;20504;-87
2021/04/10 09:32:33;;;;;;;3.25;1.13;;;;;;;14.73;23.61;93851.22;5033510;28;20041;-87
2021/04/10 09:35:00;;;;;;;2.40;1.00;;;;;;;14.50;26.30;93819.09;5014350;28;20056;-86
2021/04/10 09:37:48;;;;;;;2.35;1.10;;;;;;;14.74;26.97;93842.44;5013649;28;20283;-85
2021/04/10 09:40:19;;;;;;;2.00;0.90;;;;;;;14.55;26.56;93846.88;5013418;28;20501;-86
2021/04/10 09:42:48;;;;;;;2.75;1.00;;;;;;;14.68;27.25;93841.50;5013147;28;20127;-87
2021/04/10 09:45:17;;;;;;;8.52;3.50;;;;;;;14.85;27.04;93842.75;5013369;28;20058;-88
2021/04/10 09:48:21;;;;;;;7.68;3.05;;;;;;;15.03;26.43;93831.53;5013469;28;20038;-86
2021/04/10 09:51:08;;;;;;;15.07;5.77;;;;;;;15.08;25.86;93831.66;4993604;28;20494;-86
2021/04/10 09:53:35;;;;;;;4.75;2.03;;;;;;;15.40;24.70;93831.34;4993866;28;20042;-87
2021/04/10 09:56:05;;;;;;;3.75;1.50;;;;;;;15.33;26.34;93815.94;4993895;28;20051;-86
2021/04/10 09:58:42;;;;;;;2.35;1.17;;;;;;;15.16;27.31;93826.16;4993600;28;20050;-87
2021/04/10 10:01:12;;;;;;;3.58;1.05;;;;;;;15.13;26.83;93828.41;4993507;28;20042;-86
2021/04/10 10:03:38;;;;;;;66.63;24.90;;;;;;;15.08;26.71;93805.78;4993673;28;20112;-86
2021/04/10 10:06:18;;;;;;;13.65;5.70;;;;;;;15.27;26.21;93810.88;4993382;28;20107;-87
2021/04/10 10:08:45;;;;;;;24.95;9.63;;;;;;;15.43;26.25;93817.97;4993495;28;20117;-86
2021/04/10 10:11:12;;;;;;;6.80;2.47;;;;;;;15.66;25.60;93800.06;4993490;28;20046;-87
2021/04/10 10:13:39;;;;;;;34.65;16.63;;;;;;;15.96;25.23;93817.31;4993195;28;20046;-87
2021/04/10 10:16:07;;;;;;;12.18;5.55;;;;;;;16.03;25.68;93807.59;4993460;28;20047;-86
2021/04/10 10:18:35;;;;;;;16.73;5.75;;;;;;;16.03;24.70;93815.38;5003052;28;20045;-87
2021/04/10 10:21:04;;;;;;;3.47;1.65;;;;;;;16.00;21.70;93805.44;5032805;28;20052;-87
2021/04/10 10:23:32;;;;;;;5.68;2.35;;;;;;;16.09;24.68;93800.69;5032375;28;20107;-87
2021/04/10 10:26:11;;;;;;;3.83;1.80;;;;;;;16.12;24.72;93800.25;5032518;28;20066;-86
2021/04/10 10:28:40;;;;;;;2.28;0.95;;;;;;;16.01;24.92;93800.03;5032633;28;20053;-87
2021/04/10 10:31:11;;;;;;;2.42;1.00;;;;;;;16.41;25.13;93793.31;5032474;28;20060;-87
2021/04/10 10:33:39;;;;;;;11.98;5.47;;;;;;;16.30;25.71;93761.19;5032269;28;20053;-86
2021/04/10 10:36:06;;;;;;;4.32;1.83;;;;;;;16.23;24.84;93786.47;5032389;28;20049;-87
2021/04/10 10:38:35;;;;;;;2.92;1.48;;;;;;;16.30;24.93;93788.94;5032724;28;20056;-87
2021/04/10 10:41:02;;;;;;;4.65;2.15;;;;;;;16.34;25.65;93781.47;5031801;28;20108;-87
2021/04/10 10:43:29;;;;;;;5.68;2.35;;;;;;;16.14;25.28;93780.88;5032050;28;20501;-86
2021/04/10 10:45:57;;;;;;;1.63;0.70;;;;;;;16.19;24.82;93780.16;5031915;28;20421;-88
2021/04/10 10:48:26;;;;;;;1.70;0.70;;;;;;;16.19;22.83;93780.16;5022132;28;20050;-87
2021/04/10 10:50:54;;;;;;;6.78;2.15;;;;;;;15.72;23.18;93768.88;5012364;28;20049;-88
2021/04/10 10:53:22;;;;;;;4.03;1.20;;;;;;;15.21;21.35;93771.94;5012025;28;20050;-88
2021/04/10 10:56:00;;;;;;;5.93;1.40;;;;;;;15.08;23.73;93769.53;5012263;28;20161;-88
2021/04/10 10:58:32;;;;;;;2.90;1.17;;;;;;;15.32;22.68;93765.19;5012335;28;20402;-89
2021/04/10 11:00:59;;;;;;;2.30;1.02;;;;;;;15.52;24.76;93763.25;5012106;28;20046;-88
2021/04/10 11:03:26;;;;;;;1.73;0.88;;;;;;;15.73;25.67;93760.09;5011990;28;20046;-88
2021/04/10 11:05:54;;;;;;;2.58;1.13;;;;;;;16.05;22.21;93758.91;5011746;28;20490;-88
2021/04/10 11:08:22;;;;;;;2.22;1.10;;;;;;;16.05;21.55;93760.75;5010833;28;20100;-88
2021/04/10 11:10:50;;;;;;;1.90;0.88;;;;;;;15.90;22.05;93754.19;5011940;28;20045;-87
2021/04/10 11:13:17;;;;;;;2.20;1.45;;;;;;;15.34;22.81;93747.63;5011948;28;20144;-88
2021/04/10 11:15:46;;;;;;;4.10;1.27;;;;;;;15.71;21.96;93753.56;5011777;28;20054;-88
2021/04/10 11:18:31;;;;;;;4.85;1.80;;;;;;;15.85;25.45;93754.09;5013714;28;20072;-88
2021/04/10 11:21:17;;;;;;;15.30;6.00;;;;;;;16.12;25.13;93735.47;5031646;28;20046;-87
2021/04/10 11:24:12;;;;;;;7.60;3.45;;;;;;;16.46;21.87;93732.16;5031406;28;20060;-86
2021/04/10 11:26:42;;;;;;;;;;;;;;;16.90;22.76;93727.16;4986539;28;20054;-87
2021/04/10 11:29:13;;;;;;;4.63;2.20;;;;;;;17.12;24.02;93716.09;5031425;28;19921;-87
2021/04/10 11:31:40;;;;;;;194.95;48.88;;;;;;;17.39;21.64;93712.84;5031293;28;20053;-89
2021/04/10 11:34:28;;;;;;;13.18;5.50;;;;;;;16.95;19.41;93713.50;5031257;28;20084;-87
2021/04/10 11:36:55;;;;;;;5.10;1.60;;;;;;;17.19;20.51;93715.94;5031165;28;20111;-89
2021/04/10 11:39:22;;;;;;;6.57;2.80;;;;;;;17.28;23.19;93713.72;5031105;28;20093;-87
2021/04/10 11:41:48;;;;;;;3.60;1.40;;;;;;;17.44;22.72;93707.72;5030970;28;20061;-88
2021/04/10 11:44:15;;;;;;;2.20;1.05;;;;;;;17.28;21.33;93700.75;5030983;28;20061;-88
2021/04/10 11:46:43;;;;;;;2.22;1.20;;;;;;;17.09;20.35;93696.59;5031154;28;20183;-88